Austin, Texas
Traffic Map
Current Weather Conditions
Austin, Texas
Few Clouds
Few Clouds
35°
Feels Like: 39°
Wind Chill: 35° Ceiling: Unl
Heat Index: 39° Visibility: 10mi
Dew Point: 21° Wind: 0mph
Humidity: 44% Direction: ° ()
Pressure: 30.05in Gusts: 0mph
Raw Report DataKATT 231951Z AUTO 00000KT 10SM FEW060 FEW090 35/21 A3005 RMK AO2 SLP158 T03500211
Traffic Incident Summary
Active as of:
Severity:
Category:
InformationThere was an issue retrieving the traffic information for this location. Please try a different location or try again shortly.
Advertisements
Track Severe Weather on mobile